Time;durP1;ratioP1;P1;durP2;ratioP2;P2;SDS_P1;SDS_P2;PMS_P1;PMS_P2;Temp;Humidity;BMP_temperature;BMP_pressure;BME280_temperature;BME280_humidity;BME280_pressure;Samples;Min_cycle;Max_cycle;Signal;HPM_P1;HPM_P2
2021/05/15 00:01:52;;;;;;;64.55;41.70;;;9.20;99.90;;;;;;5115422;28;20376;-68
2021/05/15 00:04:17;;;;;;;68.85;42.97;;;9.20;99.90;;;;;;5115010;28;20396;-68
2021/05/15 00:06:43;;;;;;;68.53;43.28;;;9.20;99.90;;;;;;5115547;28;20049;-68
2021/05/15 00:09:09;;;;;;;68.78;42.50;;;9.20;99.90;;;;;;5114368;28;20431;-68
2021/05/15 00:11:35;;;;;;;66.50;43.42;;;9.10;99.90;;;;;;5114021;28;20035;-68
2021/05/15 00:14:02;;;;;;;70.88;42.17;;;9.20;99.90;;;;;;5113968;28;20019;-69
2021/05/15 00:16:27;;;;;;;65.97;43.33;;;9.20;99.90;;;;;;5115127;28;20020;-69
2021/05/15 00:18:53;;;;;;;67.85;43.42;;;9.20;99.90;;;;;;5115367;28;20051;-68
2021/05/15 00:21:18;;;;;;;61.63;42.20;;;9.20;99.90;;;;;;5114751;28;20020;-68
2021/05/15 00:23:44;;;;;;;62.13;41.47;;;9.30;99.90;;;;;;5096512;28;20023;-68
2021/05/15 00:26:12;;;;;;;61.30;40.60;;;9.30;99.90;;;;;;5115258;28;20357;-68
2021/05/15 00:28:38;;;;;;;63.33;39.67;;;9.40;99.90;;;;;;5115270;28;20098;-68
2021/05/15 00:31:04;;;;;;;61.28;40.05;;;9.30;99.90;;;;;;5115232;28;20051;-68
2021/05/15 00:33:29;;;;;;;58.65;39.22;;;9.30;99.90;;;;;;5114812;28;20015;-68
2021/05/15 00:35:55;;;;;;;58.63;38.67;;;9.30;99.90;;;;;;5114876;28;20077;-68
2021/05/15 00:38:20;;;;;;;55.10;37.58;;;9.30;99.90;;;;;;5113755;28;20027;-68
2021/05/15 00:40:46;;;;;;;58.05;39.08;;;9.30;99.90;;;;;;5114914;28;20019;-68
2021/05/15 00:43:12;;;;;;;58.08;39.25;;;9.20;99.90;;;;;;5113705;28;20036;-68
2021/05/15 00:45:38;;;;;;;63.40;42.28;;;9.20;99.90;;;;;;5114877;28;20020;-68
2021/05/15 00:48:04;;;;;;;61.13;40.78;;;9.20;99.90;;;;;;5114480;28;20031;-68
2021/05/15 00:50:31;;;;;;;57.75;39.90;;;9.20;99.90;;;;;;5114398;28;20032;-68
2021/05/15 00:52:57;;;;;;;59.10;39.08;;;9.20;99.90;;;;;;5095916;28;20020;-69
2021/05/15 00:55:24;;;;;;;54.42;37.67;;;9.20;99.90;;;;;;5114716;28;20464;-68
2021/05/15 00:57:50;;;;;;;64.32;42.17;;;9.20;99.90;;;;;;5112911;28;20027;-68
2021/05/15 01:00:16;;;;;;;60.72;40.97;;;9.20;99.90;;;;;;5095868;28;20031;-68
2021/05/15 01:02:42;;;;;;;61.20;41.65;;;9.20;99.90;;;;;;5096266;28;20437;-68
2021/05/15 01:05:10;;;;;;;62.75;42.30;;;9.30;99.90;;;;;;5114604;28;20024;-68
2021/05/15 01:07:37;;;;;;;63.42;42.55;;;9.30;99.90;;;;;;5114422;28;20024;-68
2021/05/15 01:10:04;;;;;;;55.92;39.28;;;9.30;99.90;;;;;;5114515;28;20028;-68
2021/05/15 01:12:30;;;;;;;56.67;38.75;;;9.30;99.90;;;;;;5112585;28;20042;-68
2021/05/15 01:14:57;;;;;;;60.25;41.33;;;9.20;99.90;;;;;;5114468;28;20019;-68
2021/05/15 01:17:23;;;;;;;59.38;41.08;;;9.20;99.90;;;;;;5113976;28;20111;-68
2021/05/15 01:19:49;;;;;;;56.95;40.03;;;9.30;99.90;;;;;;5114040;28;20048;-68
2021/05/15 01:22:15;;;;;;;63.05;42.50;;;9.20;99.90;;;;;;5112914;28;20066;-68
2021/05/15 01:24:44;;;;;;;57.40;40.97;;;9.20;99.90;;;;;;5114194;28;20024;-68
2021/05/15 01:27:13;;;;;;;54.92;38.83;;;9.20;99.90;;;;;;5114121;28;20434;-68
2021/05/15 01:29:40;;;;;;;54.28;39.20;;;9.20;99.90;;;;;;5114112;28;20024;-68
2021/05/15 01:32:06;;;;;;;53.72;38.15;;;9.20;99.90;;;;;;5113987;28;20028;-68
2021/05/15 01:34:32;;;;;;;56.95;38.50;;;9.10;99.90;;;;;;5114025;28;20043;-68
2021/05/15 01:36:57;;;;;;;55.42;38.65;;;9.00;99.90;;;;;;5113745;28;20078;-68
2021/05/15 01:39:23;;;;;;;51.88;37.70;;;8.90;99.90;;;;;;5113112;28;20020;-68
2021/05/15 01:41:49;;;;;;;54.17;38.92;;;8.80;99.90;;;;;;5095981;28;20027;-68
2021/05/15 01:44:16;;;;;;;51.53;36.40;;;8.80;99.90;;;;;;5114202;28;20373;-68
2021/05/15 01:46:42;;;;;;;55.08;38.63;;;8.70;99.90;;;;;;5114214;28;20445;-68
2021/05/15 01:49:07;;;;;;;56.22;38.72;;;8.70;99.90;;;;;;5113911;28;20415;-68
2021/05/15 01:51:33;;;;;;;52.97;37.00;;;8.70;99.90;;;;;;5113781;28;20076;-68
2021/05/15 01:53:59;;;;;;;51.80;37.22;;;8.60;99.90;;;;;;5114131;28;20484;-68
2021/05/15 01:56:27;;;;;;;53.72;38.15;;;8.60;99.90;;;;;;5112228;28;20020;-68
2021/05/15 01:58:53;;;;;;;52.63;36.15;;;8.60;99.90;;;;;;5112687;28;20016;-68
2021/05/15 02:01:20;;;;;;;53.33;37.75;;;8.50;99.90;;;;;;5112642;28;20026;-68
2021/05/15 02:03:46;;;;;;;54.75;36.17;;;8.50;99.90;;;;;;5112890;28;20075;-68
2021/05/15 02:06:12;;;;;;;51.22;36.38;;;8.40;99.90;;;;;;5112188;28;20035;-68
2021/05/15 02:08:41;;;;;;;55.00;36.45;;;8.40;99.90;;;;;;5113478;28;20020;-68
2021/05/15 02:11:07;;;;;;;52.90;37.25;;;8.30;99.90;;;;;;5114018;28;20015;-68
2021/05/15 02:13:32;;;;;;;49.75;34.97;;;8.30;99.90;;;;;;5113274;28;20550;-68
2021/05/15 02:16:00;;;;;;;55.78;38.05;;;8.20;99.90;;;;;;5095159;28;20160;-68
2021/05/15 02:18:26;;;;;;;54.45;37.13;;;8.20;99.90;;;;;;5113945;28;20094;-68
2021/05/15 02:20:52;;;;;;;53.08;37.78;;;8.10;99.90;;;;;;5116628;28;20023;-70
2021/05/15 02:23:18;;;;;;;49.92;35.08;;;8.10;99.90;;;;;;5117334;28;20024;-68
2021/05/15 02:25:46;;;;;;;53.40;36.20;;;8.10;99.90;;;;;;5099196;28;20073;-68
2021/05/15 02:28:12;;;;;;;53.38;35.95;;;8.00;99.90;;;;;;5116170;28;20015;-68
2021/05/15 02:30:38;;;;;;;55.70;36.58;;;8.00;99.90;;;;;;5117253;28;20528;-68
2021/05/15 02:33:04;;;;;;;57.10;37.60;;;7.90;99.90;;;;;;5115881;28;20126;-68
2021/05/15 02:35:30;;;;;;;57.03;37.28;;;7.90;99.90;;;;;;5116362;28;20069;-68
2021/05/15 02:37:56;;;;;;;50.78;35.78;;;7.80;99.90;;;;;;5081814;28;20031;-68
2021/05/15 02:40:23;;;;;;;54.05;36.45;;;7.80;99.90;;;;;;5116997;27;20078;-68
2021/05/15 02:42:50;;;;;;;56.38;36.80;;;7.90;99.90;;;;;;5116991;28;20089;-68
2021/05/15 02:45:17;;;;;;;51.53;34.22;;;7.80;99.90;;;;;;5115751;28;20027;-68
2021/05/15 02:47:43;;;;;;;50.85;34.03;;;7.90;99.90;;;;;;5115980;28;20027;-68
2021/05/15 02:50:11;;;;;;;49.08;33.42;;;7.90;99.90;;;;;;5115595;28;20205;-68
2021/05/15 02:52:37;;;;;;;46.60;32.50;;;7.90;99.90;;;;;;5116375;28;20023;-68
2021/05/15 02:55:05;;;;;;;48.08;32.90;;;7.90;99.90;;;;;;5115161;28;20469;-68
2021/05/15 02:57:30;;;;;;;45.13;30.60;;;7.90;99.90;;;;;;5116967;28;20472;-68
2021/05/15 02:59:56;;;;;;;47.03;30.98;;;8.00;99.90;;;;;;5115712;28;20023;-68
2021/05/15 03:02:21;;;;;;;45.67;30.65;;;8.10;99.90;;;;;;5116850;28;20028;-68
2021/05/15 03:04:47;;;;;;;52.00;33.45;;;8.10;99.90;;;;;;5115352;28;20578;-68
2021/05/15 03:07:12;;;;;;;49.53;33.08;;;8.20;99.90;;;;;;5116724;28;20023;-68
2021/05/15 03:09:38;;;;;;;45.15;31.23;;;8.20;99.90;;;;;;5116699;28;20032;-68
2021/05/15 03:12:04;;;;;;;47.55;31.63;;;8.30;99.90;;;;;;5114548;28;20121;-68
2021/05/15 03:14:29;;;;;;;45.28;30.52;;;8.40;99.90;;;;;;5115468;28;20136;-68
2021/05/15 03:16:55;;;;;;;42.60;29.30;;;8.40;99.90;;;;;;5116574;28;20468;-68
2021/05/15 03:19:20;;;;;;;41.58;29.52;;;8.50;99.90;;;;;;5115408;28;20028;-67
2021/05/15 03:21:46;;;;;;;44.83;30.20;;;8.50;99.90;;;;;;5114709;28;20030;-68
2021/05/15 03:24:12;;;;;;;41.05;28.73;;;8.60;99.90;;;;;;5116419;28;20024;-68
2021/05/15 03:26:37;;;;;;;42.60;28.77;;;8.60;99.90;;;;;;5114656;28;20023;-68
2021/05/15 03:29:03;;;;;;;41.25;28.38;;;8.60;99.90;;;;;;5115723;28;20035;-68
2021/05/15 03:31:28;;;;;;;41.13;27.50;;;8.70;99.90;;;;;;5115906;28;20031;-68
2021/05/15 03:33:54;;;;;;;40.42;27.52;;;8.70;99.90;;;;;;5115659;28;20443;-68
2021/05/15 03:36:21;;;;;;;41.05;27.83;;;8.70;99.90;;;;;;5114748;28;20027;-68
2021/05/15 03:38:47;;;;;;;42.47;28.40;;;8.70;99.90;;;;;;5115872;28;20015;-68
2021/05/15 03:41:12;;;;;;;35.38;25.67;;;8.70;99.90;;;;;;5115714;28;20081;-68
2021/05/15 03:43:38;;;;;;;33.67;23.55;;;8.80;99.90;;;;;;5114859;28;20020;-68
2021/05/15 03:46:04;;;;;;;30.58;22.05;;;8.80;99.90;;;;;;5114143;28;20388;-68
2021/05/15 03:48:29;;;;;;;28.73;20.02;;;8.90;99.90;;;;;;5115927;28;20079;-68
2021/05/15 03:50:55;;;;;;;26.35;19.52;;;8.90;99.90;;;;;;5115855;28;20396;-68
2021/05/15 03:53:21;;;;;;;28.17;19.88;;;8.90;99.90;;;;;;5113943;28;20027;-68
2021/05/15 03:55:48;;;;;;;31.48;20.02;;;8.90;99.90;;;;;;5114337;28;20019;-68
2021/05/15 03:58:15;;;;;;;28.90;19.20;;;9.00;99.90;;;;;;5115765;28;20019;-68
2021/05/15 04:00:40;;;;;;;29.77;20.25;;;9.00;99.90;;;;;;5115771;28;20026;-68
2021/05/15 04:03:06;;;;;;;26.90;18.38;;;9.10;99.90;;;;;;5114197;28;20110;-68
2021/05/15 04:05:32;;;;;;;29.30;18.80;;;9.10;99.90;;;;;;5115639;28;20468;-68
2021/05/15 04:07:58;;;;;;;30.00;19.63;;;9.10;99.90;;;;;;5113715;28;20031;-68
2021/05/15 04:10:23;;;;;;;29.48;19.10;;;9.20;99.90;;;;;;5115372;28;20107;-68
2021/05/15 04:12:58;;;;;;;27.20;19.52;;;9.20;99.90;;;;;;5113611;28;20397;-68
2021/05/15 04:15:35;;;;;;;21.98;15.95;;;9.30;99.90;;;;;;5115456;28;20023;-68
2021/05/15 04:18:07;;;;;;;21.20;16.42;;;9.30;99.90;;;;;;5115417;28;20110;-68
2021/05/15 04:20:35;;;;;;;23.45;17.10;;;9.30;99.90;;;;;;5113940;28;20027;-68
2021/05/15 04:23:01;;;;;;;23.23;16.75;;;9.40;99.90;;;;;;5115045;28;20027;-68
2021/05/15 04:25:27;;;;;;;20.58;15.85;;;9.40;99.90;;;;;;5114095;28;20492;-68
2021/05/15 04:27:54;;;;;;;19.80;15.13;;;9.50;99.90;;;;;;5114634;28;20073;-68
2021/05/15 04:30:20;;;;;;;18.85;14.30;;;9.50;99.90;;;;;;5113496;28;20023;-68
2021/05/15 04:32:46;;;;;;;17.88;14.48;;;9.50;99.90;;;;;;5114585;28;20024;-68
2021/05/15 04:35:11;;;;;;;19.88;15.10;;;9.60;99.90;;;;;;5114955;28;20019;-68
2021/05/15 04:37:37;;;;;;;18.83;14.45;;;9.60;99.90;;;;;;5113618;28;20027;-68
2021/05/15 04:40:04;;;;;;;22.42;15.93;;;9.70;99.90;;;;;;5113736;28;20027;-68
2021/05/15 04:42:29;;;;;;;20.35;14.73;;;9.70;99.90;;;;;;5114579;28;20023;-68
2021/05/15 04:44:55;;;;;;;20.20;15.38;;;9.70;99.90;;;;;;5113146;28;20024;-68
2021/05/15 04:47:20;;;;;;;22.05;16.75;;;9.80;99.90;;;;;;5113322;28;20024;-68
2021/05/15 04:49:46;;;;;;;19.52;15.60;;;9.90;99.90;;;;;;5114247;28;20030;-68
2021/05/15 04:52:12;;;;;;;21.92;16.90;;;9.90;99.90;;;;;;5114760;28;20032;-68
2021/05/15 04:54:37;;;;;;;21.27;15.82;;;9.90;99.90;;;;;;5114761;28;20479;-68
2021/05/15 04:57:03;;;;;;;18.00;14.77;;;10.00;99.90;;;;;;5096523;28;20081;-68
2021/05/15 04:59:28;;;;;;;14.65;12.02;;;10.00;99.90;;;;;;5113374;28;20020;-68
2021/05/15 05:01:54;;;;;;;14.18;11.70;;;10.10;99.90;;;;;;5114629;28;20465;-68
2021/05/15 05:04:19;;;;;;;13.75;11.00;;;10.10;99.90;;;;;;5114695;28;20030;-68
2021/05/15 05:06:45;;;;;;;13.05;11.63;;;10.20;99.90;;;;;;5112936;28;20039;-68
2021/05/15 05:09:10;;;;;;;16.25;11.73;;;10.30;99.90;;;;;;5114029;28;20038;-68
2021/05/15 05:11:36;;;;;;;13.38;11.85;;;10.30;99.90;;;;;;5113803;28;20469;-69
2021/05/15 05:14:01;;;;;;;13.77;11.38;;;10.40;99.90;;;;;;5112717;28;20023;-68
2021/05/15 05:16:27;;;;;;;13.98;11.23;;;10.40;99.90;;;;;;5113128;28;20020;-68
2021/05/15 05:18:53;;;;;;;13.80;10.98;;;10.50;99.90;;;;;;5114172;28;20073;-68
2021/05/15 05:21:18;;;;;;;15.23;10.70;;;10.50;99.90;;;;;;5114424;28;20461;-68
2021/05/15 05:23:44;;;;;;;13.57;10.50;;;10.60;99.90;;;;;;5114144;28;20423;-68
2021/05/15 05:26:09;;;;;;;17.08;10.65;;;10.70;99.90;;;;;;5112953;28;20026;-68
2021/05/15 05:28:36;;;;;;;12.27;10.15;;;10.80;99.90;;;;;;5113375;28;20024;-68
2021/05/15 05:31:04;;;;;;;13.60;10.40;;;10.80;99.90;;;;;;5114313;28;20019;-68
2021/05/15 05:33:30;;;;;;;9.55;8.55;;;10.80;99.90;;;;;;5112814;28;20474;-68
2021/05/15 05:35:59;;;;;;;9.88;6.35;;;10.90;99.90;;;;;;5112525;28;20051;-68
2021/05/15 05:38:24;;;;;;;7.80;5.55;;;10.90;99.90;;;;;;5113702;28;20072;-68
2021/05/15 05:40:50;;;;;;;5.70;5.10;;;10.90;99.90;;;;;;5112678;28;20024;-68
2021/05/15 05:43:15;;;;;;;5.30;4.68;;;10.90;99.90;;;;;;5114242;28;20059;-68
2021/05/15 05:45:41;;;;;;;4.43;4.03;;;10.90;99.90;;;;;;5112426;28;20034;-68
2021/05/15 05:48:07;;;;;;;6.47;4.47;;;10.90;99.90;;;;;;5113017;28;20457;-68
2021/05/15 05:50:32;;;;;;;8.43;4.22;;;10.90;99.90;;;;;;5113889;28;20020;-68
2021/05/15 05:52:58;;;;;;;4.18;3.65;;;11.00;99.90;;;;;;5112755;28;20055;-68
2021/05/15 05:55:24;;;;;;;5.32;3.78;;;11.00;99.90;;;;;;5115377;28;20063;-68
2021/05/15 05:57:50;;;;;;;5.10;4.28;;;11.10;99.90;;;;;;5116984;28;20015;-68
2021/05/15 06:00:16;;;;;;;5.43;4.20;;;11.10;99.90;;;;;;5116464;28;20023;-68
2021/05/15 06:02:42;;;;;;;4.80;3.42;;;11.10;99.90;;;;;;5117784;28;20036;-68
2021/05/15 06:05:08;;;;;;;4.43;4.00;;;11.10;99.90;;;;;;5117697;28;20028;-68
2021/05/15 06:07:33;;;;;;;6.45;4.40;;;11.20;99.90;;;;;;5116051;28;20024;-68
2021/05/15 06:09:59;;;;;;;6.25;4.70;;;11.30;99.90;;;;;;5117525;28;20078;-68
2021/05/15 06:12:25;;;;;;;6.82;4.00;;;11.20;99.90;;;;;;5117228;28;20408;-68
2021/05/15 06:14:51;;;;;;;9.38;4.00;;;11.30;99.90;;;;;;5116053;28;20020;-68
2021/05/15 06:17:16;;;;;;;5.25;4.10;;;11.40;99.90;;;;;;5116055;28;20020;-68
2021/05/15 06:19:44;;;;;;;6.13;3.80;;;11.30;99.90;;;;;;5116248;28;20461;-68
2021/05/15 06:22:11;;;;;;;5.70;4.07;;;11.40;99.90;;;;;;5117416;28;20028;-68
2021/05/15 06:24:40;;;;;;;4.72;3.92;;;11.50;99.90;;;;;;5117345;28;20099;-68
2021/05/15 06:27:07;;;;;;;7.43;4.03;;;11.50;99.90;;;;;;5117315;28;20024;-68
2021/05/15 06:29:34;;;;;;;6.75;4.25;;;11.60;99.90;;;;;;5117326;28;20073;-68
2021/05/15 06:31:59;;;;;;;5.93;4.30;;;11.70;99.90;;;;;;5117172;28;20020;-68
2021/05/15 06:34:25;;;;;;;5.65;4.47;;;11.90;99.90;;;;;;5117352;28;20030;-68
2021/05/15 06:36:53;;;;;;;5.75;4.35;;;11.90;99.90;;;;;;5116290;28;20461;-68
2021/05/15 06:39:19;;;;;;;5.30;4.38;;;12.00;99.90;;;;;;5115605;28;20020;-68
2021/05/15 06:41:45;;;;;;;10.02;4.88;;;12.20;99.90;;;;;;5116742;28;20030;-69
2021/05/15 06:44:11;;;;;;;7.25;4.20;;;12.30;99.90;;;;;;5098550;28;20027;-68
2021/05/15 06:46:36;;;;;;;5.60;4.40;;;12.50;99.90;;;;;;5115440;28;20104;-68
2021/05/15 06:49:02;;;;;;;5.95;5.00;;;12.60;99.90;;;;;;5117142;28;20097;-68
2021/05/15 06:51:27;;;;;;;6.28;4.72;;;12.70;99.90;;;;;;5116793;28;20059;-68
2021/05/15 06:53:53;;;;;;;6.57;4.82;;;12.70;99.90;;;;;;5117064;28;20032;-68
2021/05/15 06:56:18;;;;;;;7.22;4.85;;;13.00;99.90;;;;;;5116125;28;20031;-68
2021/05/15 06:58:45;;;;;;;7.03;4.72;;;13.30;99.90;;;;;;5117332;28;20026;-68
2021/05/15 07:01:11;;;;;;;5.75;4.80;;;13.60;99.90;;;;;;5117150;28;20055;-69
2021/05/15 07:03:37;;;;;;;7.47;5.90;;;13.50;99.90;;;;;;5117977;28;20062;-68
2021/05/15 07:06:04;;;;;;;6.53;5.40;;;13.40;99.90;;;;;;5114992;28;20404;-68
2021/05/15 07:08:29;;;;;;;7.97;4.53;;;14.10;99.90;;;;;;5116711;28;20028;-69
2021/05/15 07:10:55;;;;;;;6.45;5.70;;;14.20;99.90;;;;;;5116764;28;20477;-68
2021/05/15 07:13:20;;;;;;;5.63;4.82;;;14.50;99.90;;;;;;5097726;28;20036;-68
2021/05/15 07:15:46;;;;;;;5.10;4.60;;;15.60;99.90;;;;;;5116598;28;20027;-69
2021/05/15 07:18:12;;;;;;;9.88;4.65;;;16.80;99.90;;;;;;5116033;28;20028;-69
2021/05/15 07:20:37;;;;;;;6.40;4.85;;;17.60;99.90;;;;;;5114806;28;20058;-68
2021/05/15 07:23:07;;;;;;;6.10;5.10;;;17.90;99.90;;;;;;5097658;28;20027;-68
2021/05/15 07:25:33;;;;;;;5.40;4.90;;;17.60;99.90;;;;;;5115369;28;20034;-69
2021/05/15 07:27:59;;;;;;;7.97;5.32;;;17.40;99.90;;;;;;5114648;28;20028;-69
2021/05/15 07:30:36;;;;;;;8.18;5.78;;;16.90;99.90;;;;;;5115698;28;20046;-68
2021/05/15 07:33:01;;;;;;;6.55;5.57;;;16.70;99.90;;;;;;5115938;28;20024;-68
2021/05/15 07:35:27;;;;;;;6.80;5.65;;;16.50;99.90;;;;;;5114808;28;20101;-69
2021/05/15 07:37:53;;;;;;;8.70;6.80;;;16.70;99.90;;;;;;5097492;28;20030;-69
2021/05/15 07:40:19;;;;;;;8.82;7.95;;;16.50;99.90;;;;;;5115867;28;20047;-69
2021/05/15 07:42:46;;;;;;;9.43;8.30;;;16.20;99.90;;;;;;5097315;28;20020;-69
2021/05/15 07:45:13;;;;;;;9.85;8.82;;;15.90;99.90;;;;;;5115599;28;20023;-69
2021/05/15 07:47:40;;;;;;;8.60;7.75;;;15.50;99.90;;;;;;5115685;28;20527;-69
2021/05/15 07:50:06;;;;;;;7.50;6.80;;;15.80;99.90;;;;;;5115710;28;20040;-68
2021/05/15 07:52:31;;;;;;;7.05;6.28;;;16.10;99.90;;;;;;5114341;28;20023;-68
2021/05/15 07:54:57;;;;;;;7.70;6.35;;;15.60;99.90;;;;;;5115507;28;20034;-68
2021/05/15 07:57:23;;;;;;;6.97;5.65;;;15.80;99.90;;;;;;5114365;28;20464;-68
2021/05/15 07:59:49;;;;;;;6.07;5.40;;;16.20;99.90;;;;;;5114625;28;20043;-68
2021/05/15 08:02:15;;;;;;;7.88;5.45;;;16.40;99.90;;;;;;5114451;28;20023;-68
2021/05/15 08:04:41;;;;;;;7.40;5.65;;;16.00;99.90;;;;;;5115096;28;20031;-68
2021/05/15 08:07:06;;;;;;;7.30;5.55;;;15.60;99.90;;;;;;5114271;28;20046;-68
2021/05/15 08:09:32;;;;;;;6.38;5.57;;;15.00;99.90;;;;;;5113697;28;20123;-68
2021/05/15 08:11:58;;;;;;;7.95;5.93;;;14.70;99.90;;;;;;5113802;28;20044;-68
2021/05/15 08:14:23;;;;;;;7.78;7.03;;;14.60;99.90;;;;;;5114784;28;20373;-68
2021/05/15 08:16:49;;;;;;;8.50;6.45;;;15.30;99.90;;;;;;5095973;28;20024;-69
2021/05/15 08:19:17;;;;;;;8.55;6.15;;;16.10;99.90;;;;;;5115331;28;20027;-69
2021/05/15 08:21:43;;;;;;;7.32;6.30;;;15.70;99.90;;;;;;5114944;28;20051;-68
2021/05/15 08:24:09;;;;;;;9.30;6.57;;;15.30;99.90;;;;;;5113843;28;20440;-70
2021/05/15 08:26:36;;;;;;;7.60;6.90;;;15.20;99.90;;;;;;5113805;28;20058;-69
2021/05/15 08:29:06;;;;;;;8.98;6.88;;;15.10;99.90;;;;;;5096891;28;20011;-70
2021/05/15 08:31:32;;;;;;;7.32;6.63;;;15.00;99.90;;;;;;5114310;28;20034;-69
2021/05/15 08:33:57;;;;;;;7.13;6.35;;;15.10;99.90;;;;;;5115234;28;20118;-67
2021/05/15 08:36:23;;;;;;;7.57;6.30;;;15.40;99.90;;;;;;5113847;28;20026;-70
2021/05/15 08:38:49;;;;;;;7.47;6.78;;;15.50;99.90;;;;;;5114475;28;20015;-69
2021/05/15 08:41:14;;;;;;;9.27;8.00;;;15.40;99.90;;;;;;5114362;28;20414;-69
2021/05/15 08:43:42;;;;;;;11.80;9.13;;;14.60;99.90;;;;;;5113294;28;20024;-70
2021/05/15 08:46:12;;;;;;;14.82;11.80;;;13.90;99.90;;;;;;5114723;28;20107;-67
2021/05/15 08:48:38;;;;;;;13.70;11.93;;;13.60;99.90;;;;;;5113177;28;20136;-68
2021/05/15 08:51:04;;;;;;;16.77;12.50;;;13.40;99.90;;;;;;5114020;28;20116;-71
2021/05/15 08:53:31;;;;;;;15.43;13.20;;;13.30;99.90;;;;;;5114208;28;20028;-68
2021/05/15 08:56:00;;;;;;;15.43;13.70;;;13.30;99.90;;;;;;5114815;28;20011;-69
2021/05/15 08:58:26;;;;;;;16.08;14.10;;;13.40;99.90;;;;;;5114474;28;20016;-69
2021/05/15 09:00:52;;;;;;;16.98;12.77;;;13.30;99.90;;;;;;5114568;28;20023;-69
2021/05/15 09:03:20;;;;;;;15.43;13.43;;;13.30;99.90;;;;;;5114348;28;20015;-69
2021/05/15 09:05:50;;;;;;;15.02;13.43;;;13.30;99.90;;;;;;5096455;28;20419;-69
2021/05/15 09:08:16;;;;;;;17.33;13.48;;;13.20;99.90;;;;;;5112877;28;20027;-68
2021/05/15 09:10:45;;;;;;;15.50;12.20;;;13.20;99.90;;;;;;5112698;28;20028;-67
2021/05/15 09:15:57;;;;;;;17.42;12.50;;;12.60;99.90;;;;;;5112203;27;20420;-68
2021/05/15 09:18:26;;;;;;;16.70;12.20;;;12.70;99.90;;;;;;5110227;28;20110;-68
2021/05/15 09:20:54;;;;;;;15.35;11.85;;;12.80;99.90;;;;;;5111880;28;20454;-68
2021/05/15 09:23:24;;;;;;;16.73;13.20;;;13.20;99.90;;;;;;5111600;28;20459;-68
2021/05/15 09:28:47;;;;;;;12.38;9.85;;;15.20;99.90;;;;;;5132544;27;20346;-68
2021/05/15 09:33:55;;;;;;;11.32;9.18;;;15.10;99.90;;;;;;5091830;27;20348;-67
2021/05/15 09:36:24;;;;;;;11.65;10.32;;;15.20;99.90;;;;;;5090144;28;20381;-68
2021/05/15 09:39:12;;;;;;;11.13;9.15;;;15.50;99.90;;;;;;5091286;28;20415;-67
2021/05/15 09:41:44;;;;;;;10.73;9.25;;;16.30;99.90;;;;;;5089995;28;20020;-68
2021/05/15 09:44:12;;;;;;;9.45;8.45;;;16.50;99.90;;;;;;5090055;28;20020;-68
2021/05/15 09:46:40;;;;;;;8.38;7.57;;;16.60;99.90;;;;;;5089710;28;20032;-67
2021/05/15 09:49:06;;;;;;;8.05;7.25;;;16.90;99.90;;;;;;5091341;28;20406;-68
2021/05/15 09:51:32;;;;;;;7.35;6.30;;;18.30;99.90;;;;;;5089508;28;20027;-68
2021/05/15 09:54:16;;;;;;;6.63;6.03;;;17.70;99.90;;;;;;5090067;28;20104;-70
2021/05/15 09:56:42;;;;;;;7.25;6.35;;;17.30;99.90;;;;;;5090832;28;20440;-68
2021/05/15 09:59:10;;;;;;;7.30;5.22;;;17.80;99.90;;;;;;5089709;28;20017;-69
2021/05/15 10:01:42;;;;;;;6.22;5.30;;;17.80;99.90;;;;;;5089311;28;20438;-68
2021/05/15 10:04:10;;;;;;;5.20;4.72;;;16.80;99.90;;;;;;5089639;28;20028;-68
2021/05/15 10:06:36;;;;;;;7.05;5.53;;;16.30;99.90;;;;;;5089585;28;20161;-68
2021/05/15 10:09:03;;;;;;;5.43;4.93;;;15.70;99.90;;;;;;5090498;28;20077;-68
2021/05/15 10:11:29;;;;;;;6.40;5.85;;;15.50;99.90;;;;;;5072342;28;20017;-68
2021/05/15 10:13:55;;;;;;;8.10;7.30;;;15.10;99.90;;;;;;5090405;28;20112;-68
2021/05/15 10:16:21;;;;;;;10.65;9.43;;;14.80;99.90;;;;;;5090637;28;20103;-69
2021/05/15 10:18:48;;;;;;;12.77;11.48;;;14.70;99.90;;;;;;5089530;28;20477;-68
2021/05/15 10:21:14;;;;;;;13.57;11.40;;;14.60;99.90;;;;;;5089836;28;20074;-68
2021/05/15 10:23:43;;;;;;;11.43;10.13;;;15.10;99.90;;;;;;5072069;28;20110;-68
2021/05/15 10:26:24;;;;;;;11.07;9.98;;;15.70;99.90;;;;;;5090759;28;20025;-70
2021/05/15 10:29:00;;;;;;;11.60;9.48;;;16.20;99.90;;;;;;5089308;28;20024;-68
2021/05/15 10:31:44;;;;;;;7.88;7.15;;;17.00;99.90;;;;;;5090766;28;20020;-68
2021/05/15 10:34:10;;;;;;;8.30;7.50;;;18.10;99.90;;;;;;5088875;28;20030;-68
2021/05/15 10:36:51;;;;;;;8.32;7.55;;;18.90;99.90;;;;;;5089067;28;20104;-68
2021/05/15 10:39:33;;;;;;;8.50;7.70;;;18.70;99.90;;;;;;5090056;28;20160;-71
2021/05/15 10:42:02;;;;;;;9.30;7.85;;;17.80;99.90;;;;;;5088729;28;20020;-70
2021/05/15 10:44:45;;;;;;;8.30;7.45;;;17.30;99.90;;;;;;5079534;28;20116;-70
2021/05/15 10:47:12;;;;;;;8.70;7.45;;;17.80;99.90;;;;;;5075377;28;20025;-70
2021/05/15 10:49:38;;;;;;;10.43;7.80;;;17.90;99.90;;;;;;5075175;28;20055;-70
2021/05/15 10:52:09;;;;;;;9.40;7.93;;;18.10;99.90;;;;;;5076321;28;20032;-70
2021/05/15 10:54:39;;;;;;;9.73;7.85;;;18.10;99.90;;;;;;5076381;28;20024;-69
2021/05/15 10:57:07;;;;;;;9.05;7.95;;;18.00;99.90;;;;;;5075308;28;20022;-70
2021/05/15 10:59:35;;;;;;;7.78;6.95;;;17.60;99.90;;;;;;5076196;28;20020;-70
2021/05/15 11:02:05;;;;;;;7.68;5.88;;;16.90;99.90;;;;;;5076305;28;20063;-70
2021/05/15 11:04:35;;;;;;;7.53;6.30;;;16.90;99.90;;;;;;5075396;28;20040;-70
2021/05/15 11:07:08;;;;;;;7.45;6.57;;;17.10;99.90;;;;;;5074650;28;20078;-68
2021/05/15 11:09:35;;;;;;;;;;;17.00;99.90;;;;;;5074913;28;20035;-68
2021/05/15 11:12:06;;;;;;;9.27;8.32;;;16.70;99.90;;;;;;5074856;28;20401;-69
2021/05/15 11:14:34;;;;;;;11.32;9.20;;;16.60;99.90;;;;;;5074845;28;20031;-68
2021/05/15 11:20:14;;;;;;;11.13;8.90;;;16.10;99.90;;;;;;5111550;27;20347;-70
2021/05/15 11:22:55;;;;;;;9.63;8.63;;;15.90;99.90;;;;;;5110145;28;20042;-69
2021/05/15 11:25:27;;;;;;;9.98;8.38;;;15.60;99.90;;;;;;5110417;28;20350;-69
2021/05/15 11:27:58;;;;;;;9.50;8.15;;;15.50;99.90;;;;;;5110560;28;20016;-69
2021/05/15 11:30:28;;;;;;;10.10;8.32;;;15.80;99.90;;;;;;5110424;28;20065;-69
2021/05/15 11:35:41;;;;;;;7.95;7.13;;;16.10;99.90;;;;;;5112121;27;20395;-70
2021/05/15 11:38:11;;;;;;;8.55;6.50;;;16.80;99.90;;;;;;5110413;28;20034;-68
2021/05/15 11:40:40;;;;;;;6.18;5.05;;;16.90;99.90;;;;;;5093962;28;20016;-70
2021/05/15 11:43:07;;;;;;;5.88;5.30;;;16.60;99.90;;;;;;5111728;28;20491;-70
2021/05/15 11:45:34;;;;;;;6.28;5.68;;;16.50;99.90;;;;;;5110780;28;20438;-69
2021/05/15 11:48:19;;;;;;;6.45;5.70;;;16.30;99.90;;;;;;5110308;28;20530;-69
2021/05/15 11:51:02;;;;;;;7.88;6.35;;;16.30;99.90;;;;;;5094485;28;20045;-69
2021/05/15 11:53:29;;;;;;;7.57;6.53;;;16.00;99.90;;;;;;5111092;28;20023;-70
2021/05/15 11:55:55;;;;;;;6.70;6.00;;;15.80;99.90;;;;;;5111616;28;20023;-69
2021/05/15 11:58:21;;;;;;;8.13;7.43;;;15.20;99.90;;;;;;5111644;28;20020;-69
2021/05/15 12:00:47;;;;;;;11.38;8.73;;;15.10;99.90;;;;;;5110976;28;20484;-69
2021/05/15 12:03:20;;;;;;;10.45;8.98;;;15.20;99.90;;;;;;5110912;28;20019;-70
2021/05/15 12:05:45;;;;;;;9.25;8.35;;;15.30;99.90;;;;;;5109659;28;20058;-70
2021/05/15 12:08:12;;;;;;;9.02;8.23;;;15.50;99.90;;;;;;5109458;28;20067;-69
2021/05/15 12:10:39;;;;;;;8.73;7.90;;;15.60;99.90;;;;;;5111119;28;20016;-70
2021/05/15 12:13:05;;;;;;;8.98;8.07;;;15.90;99.90;;;;;;5110703;28;20364;-69
2021/05/15 12:15:32;;;;;;;7.82;6.97;;;16.10;99.90;;;;;;5109959;28;20073;-69
2021/05/15 12:18:00;;;;;;;8.18;7.38;;;16.00;99.90;;;;;;5092430;28;20020;-69
2021/05/15 12:20:39;;;;;;;7.50;6.80;;;16.10;99.90;;;;;;5110022;28;20099;-70
2021/05/15 12:23:08;;;;;;;7.93;7.15;;;15.90;99.90;;;;;;5109697;28;20042;-70
2021/05/15 12:25:34;;;;;;;8.52;7.43;;;15.80;99.90;;;;;;5093177;28;20024;-68
2021/05/15 12:27:59;;;;;;;12.13;8.13;;;15.50;99.90;;;;;;5109923;28;20028;-69
2021/05/15 12:30:26;;;;;;;12.23;8.55;;;15.00;99.90;;;;;;5111096;28;20032;-69
2021/05/15 12:33:07;;;;;;;8.68;5.60;;;14.00;99.90;;;;;;5110128;28;20028;-68
2021/05/15 12:35:34;;;;;;;9.27;7.55;;;12.70;99.90;;;;;;5110113;28;20511;-69
2021/05/15 12:38:01;;;;;;;10.02;5.70;;;12.50;99.90;;;;;;5092345;28;20054;-69
2021/05/15 12:40:29;;;;;;;6.63;4.82;;;12.40;99.90;;;;;;5093078;28;20020;-69
2021/05/15 12:43:08;;;;;;;5.00;4.45;;;12.30;99.90;;;;;;5110669;28;20467;-69
2021/05/15 12:45:37;;;;;;;7.63;5.53;;;12.30;99.90;;;;;;5104015;28;20032;-69
2021/05/15 12:48:03;;;;;;;7.18;5.10;;;12.30;99.90;;;;;;5096996;28;20024;-69
2021/05/15 12:50:29;;;;;;;8.40;6.30;;;12.50;99.90;;;;;;5078336;28;20077;-69
2021/05/15 12:53:12;;;;;;;7.68;5.72;;;12.60;99.90;;;;;;5095836;28;20016;-68
2021/05/15 12:55:53;;;;;;;5.57;4.97;;;12.80;99.90;;;;;;5096905;28;20113;-69